Time;durP1;ratioP1;P1;durP2;ratioP2;P2;SDS_P1;SDS_P2;PMS_P1;PMS_P2;Temp;Humidity;BMP_temperature;BMP_pressure;BME280_temperature;BME280_humidity;BME280_pressure;Samples;Min_cycle;Max_cycle;Signal;HPM_P1;HPM_P2
2022/04/18 00:00:34;;;;;;;;;;;10.20;99.90;;;;;;5038083;28;19986;-83
2022/04/18 00:03:03;;;;;;;;;;;10.20;99.90;;;;;;5037866;28;19913;-82
2022/04/18 00:05:32;;;;;;;;;;;10.10;99.90;;;;;;5037543;28;19917;-83
2022/04/18 00:07:57;;;;;;;;;;;10.10;99.90;;;;;;5037581;28;20041;-83
2022/04/18 00:10:23;;;;;;;;;;;10.10;99.90;;;;;;5038973;28;20026;-84
2022/04/18 00:12:49;;;;;;;;;;;10.10;99.90;;;;;;5037486;28;19922;-82
2022/04/18 00:15:14;;;;;;;;;;;10.00;99.90;;;;;;5041112;28;19967;-83
2022/04/18 00:17:40;;;;;;;;;;;10.10;99.90;;;;;;5036522;28;19921;-84
2022/04/18 00:20:06;;;;;;;;;;;10.00;99.90;;;;;;5038367;28;19917;-83
2022/04/18 00:22:31;;;;;;;;;;;10.00;99.90;;;;;;5036366;28;19963;-83
2022/04/18 00:24:57;;;;;;;;;;;10.00;99.90;;;;;;5025835;28;19925;-83
2022/04/18 00:27:22;;;;;;;;;;;9.90;99.90;;;;;;5037334;28;20361;-83
2022/04/18 00:29:50;;;;;;;;;;;9.90;99.90;;;;;;5037502;28;19921;-82
2022/04/18 00:32:18;;;;;;;;;;;9.80;99.90;;;;;;5037152;28;19921;-83
2022/04/18 00:34:43;;;;;;;;;;;9.70;99.90;;;;;;5019448;28;19913;-83
2022/04/18 00:37:09;;;;;;;;;;;9.70;99.90;;;;;;5037346;28;19936;-83
2022/04/18 00:39:35;;;;;;;;;;;9.60;99.90;;;;;;5037495;28;19966;-82
2022/04/18 00:42:00;;;;;;;;;;;9.60;99.90;;;;;;5019538;28;19921;-83
2022/04/18 00:44:26;;;;;;;;;;;9.50;99.90;;;;;;5037505;28;19974;-82
2022/04/18 00:46:51;;;;;;;;;;;9.40;99.90;;;;;;5018742;28;19917;-83
2022/04/18 00:49:17;;;;;;;;;;;9.40;99.90;;;;;;5036549;28;19913;-82
2022/04/18 00:51:43;;;;;;;;;;;9.30;99.90;;;;;;5035248;28;19924;-82
2022/04/18 00:54:10;;;;;;;;;;;9.30;99.90;;;;;;5037316;28;20416;-82
2022/04/18 00:56:35;;;;;;;;;;;9.20;99.90;;;;;;5036581;28;19983;-82
2022/04/18 00:59:01;;;;;;;;;;;9.20;99.90;;;;;;5016908;28;20013;-82
2022/04/18 01:01:26;;;;;;;;;;;9.20;99.90;;;;;;5019633;28;19920;-82
2022/04/18 01:03:52;;;;;;;;;;;9.10;99.90;;;;;;5034045;28;20015;-82
2022/04/18 01:06:18;;;;;;;;;;;9.10;99.90;;;;;;5017747;28;19971;-81
2022/04/18 01:08:44;;;;;;;;;;;9.00;99.90;;;;;;5034462;28;20008;-83
2022/04/18 01:11:09;;;;;;;;;;;8.90;99.90;;;;;;5037891;28;20369;-82
2022/04/18 01:13:39;;;;;;;;;;;8.90;99.90;;;;;;5021676;28;19921;-82
2022/04/18 01:16:05;;;;;;;;;;;8.80;99.90;;;;;;5023087;28;19917;-81
2022/04/18 01:18:30;;;;;;;;;;;8.70;99.90;;;;;;5037910;28;19921;-82
2022/04/18 01:20:56;;;;;;;;;;;8.60;99.90;;;;;;5016711;28;20305;-82
2022/04/18 01:23:21;;;;;;;;;;;8.70;99.90;;;;;;5035278;28;19921;-82
2022/04/18 01:31:15;;;;;;;;;;;8.70;99.90;;;;;;5030881;28;20438;-80
2022/04/18 01:33:41;;;;;;;;;;;8.60;99.90;;;;;;5035433;28;19909;-82
2022/04/18 01:36:07;;;;;;;;;;;8.60;99.90;;;;;;5018731;28;20337;-81
2022/04/18 01:38:33;;;;;;;;;;;8.60;99.90;;;;;;5034669;28;19976;-82
2022/04/18 01:40:58;;;;;;;;;;;8.60;99.90;;;;;;5017242;28;19963;-81
2022/04/18 01:43:24;;;;;;;;;;;8.60;99.90;;;;;;5035505;28;19913;-81
2022/04/18 01:45:50;;;;;;;;;;;8.50;99.90;;;;;;5034910;28;20169;-82
2022/04/18 01:48:15;;;;;;;;;;;8.50;99.90;;;;;;5039845;28;19913;-81
2022/04/18 01:50:41;;;;;;;;;;;8.50;99.90;;;;;;5036522;28;19909;-83
2022/04/18 01:53:06;;;;;;;;;;;8.50;99.90;;;;;;5036827;28;20389;-83
2022/04/18 01:55:32;;;;;;;;;;;8.50;99.90;;;;;;5019817;28;19905;-83
2022/04/18 01:57:57;;;;;;;;;;;8.50;99.90;;;;;;5010859;28;20039;-83
2022/04/18 02:00:22;;;;;;;;;;;8.50;99.90;;;;;;5036742;28;19924;-82
2022/04/18 02:02:48;;;;;;;;;;;8.50;99.90;;;;;;5035368;28;19909;-82
2022/04/18 02:05:14;;;;;;;;;;;8.50;99.90;;;;;;5036668;28;20020;-82
2022/04/18 02:07:39;;;;;;;;;;;8.50;99.90;;;;;;5034189;28;19906;-82
2022/04/18 02:10:05;;;;;;;;;;;8.60;99.90;;;;;;5037319;28;19921;-82
2022/04/18 02:12:31;;;;;;;;;;;8.60;99.90;;;;;;5036568;28;20285;-83
2022/04/18 02:14:57;;;;;;;;;;;8.50;99.90;;;;;;5035212;28;19913;-82
2022/04/18 02:17:22;;;;;;;;;;;8.50;99.90;;;;;;5037202;28;19905;-82
2022/04/18 02:19:48;;;;;;;;;;;8.40;99.90;;;;;;5036630;28;19920;-83
2022/04/18 02:22:16;;;;;;;;;;;8.30;99.90;;;;;;5038977;28;19913;-83
2022/04/18 02:24:41;;;;;;;;;;;8.10;99.90;;;;;;5037904;28;19921;-83
2022/04/18 02:27:08;;;;;;;;;;;8.10;99.90;;;;;;5035026;28;19972;-83
2022/04/18 02:29:33;;;;;;;;;;;8.00;99.90;;;;;;5034592;28;19909;-83
2022/04/18 02:34:43;;;;;;;;;;;7.90;99.90;;;;;;5033475;28;19916;-83
2022/04/18 02:37:09;;;;;;;;;;;7.90;99.90;;;;;;5035024;28;19913;-83
2022/04/18 02:39:34;;;;;;;;;;;8.00;99.90;;;;;;5034681;28;19940;-83
2022/04/18 02:42:00;;;;;;;;;;;8.00;99.90;;;;;;5035088;28;19920;-83
2022/04/18 02:44:25;;;;;;;;;;;8.10;99.90;;;;;;5034881;28;19917;-82
2022/04/18 02:46:51;;;;;;;;;;;8.10;99.90;;;;;;5034085;28;19995;-84
2022/04/18 02:49:16;;;;;;;;;;;8.10;99.90;;;;;;5034993;28;19913;-82
2022/04/18 02:51:42;;;;;;;;;;;8.20;99.90;;;;;;5048450;22;19926;-85
2022/04/18 02:54:12;;;;;;;;;;;8.20;99.90;;;;;;5016513;28;19913;-85
2022/04/18 02:56:38;;;;;;;;;;;8.20;99.90;;;;;;5014081;28;19913;-85
2022/04/18 02:59:03;;;;;;;;;;;8.10;99.90;;;;;;4999093;28;19936;-86
2022/04/18 03:01:29;;;;;;;;;;;8.20;99.90;;;;;;5022538;28;19940;-85
2022/04/18 03:03:54;;;;;;;;;;;8.20;99.90;;;;;;5035647;28;19932;-84
2022/04/18 03:06:20;;;;;;;;;;;8.10;99.90;;;;;;5019026;28;19917;-84
2022/04/18 03:08:45;;;;;;;;;;;8.10;99.90;;;;;;5035354;28;19924;-83
2022/04/18 03:11:11;;;;;;;;;;;8.00;99.90;;;;;;5037765;28;20287;-83
2022/04/18 03:13:37;;;;;;;;;;;8.00;99.90;;;;;;5037791;28;19913;-85
2022/04/18 03:16:12;;;;;;;;;;;7.90;99.90;;;;;;5037429;28;19921;-84
2022/04/18 03:18:38;;;;;;;;;;;7.90;99.90;;;;;;5021367;28;19913;-84
2022/04/18 03:21:04;;;;;;;;;;;7.90;99.90;;;;;;5036534;28;19914;-83
2022/04/18 03:23:30;;;;;;;;;;;7.90;99.90;;;;;;5036364;28;20483;-83
2022/04/18 03:25:57;;;;;;;;;;;7.90;99.90;;;;;;5035931;28;19968;-84
2022/04/18 03:28:22;;;;;;;;;;;7.90;99.90;;;;;;5021089;28;19913;-85
2022/04/18 03:30:48;;;;;;;;;;;7.90;99.90;;;;;;5036536;28;19916;-84
2022/04/18 03:33:13;;;;;;;;;;;7.80;99.90;;;;;;5020934;28;19913;-85
2022/04/18 03:39:50;;;;;;;;;;;7.70;99.90;;;;;;5019906;28;19936;-85
2022/04/18 03:41:08;;;;;;;;;;;7.60;99.90;;;;;;5035076;28;19923;-85
2022/04/18 03:43:35;;;;;;;;;;;7.60;99.90;;;;;;5038145;28;19990;-83
2022/04/18 03:46:00;;;;;;;;;;;7.60;99.90;;;;;;5036453;28;20412;-85
2022/04/18 03:48:26;;;;;;;;;;;7.50;99.90;;;;;;5038179;28;19909;-83
2022/04/18 03:50:51;;;;;;;;;;;7.50;99.90;;;;;;5035939;28;19913;-84
2022/04/18 03:53:17;;;;;;;;;;;7.50;99.90;;;;;;5036958;28;19917;-83
2022/04/18 03:55:45;;;;;;;;;;;7.40;99.90;;;;;;5019249;28;20007;-85
2022/04/18 03:58:10;;;;;;;;;;;7.40;99.90;;;;;;5018052;28;19921;-85
2022/04/18 04:00:36;;;;;;;;;;;7.40;99.90;;;;;;5038108;28;19959;-84
2022/04/18 04:03:01;;;;;;;;;;;7.40;99.90;;;;;;5034892;28;19917;-84
2022/04/18 04:05:27;;;;;;;;;;;7.30;99.90;;;;;;5038445;28;19917;-85
2022/04/18 04:07:52;;;;;;;;;;;7.30;99.90;;;;;;5018261;28;19913;-84
2022/04/18 04:10:18;;;;;;;;;;;7.30;99.90;;;;;;5037268;28;20381;-84
2022/04/18 04:12:43;;;;;;;;;;;7.30;99.90;;;;;;5019621;28;19913;-85
2022/04/18 04:15:11;;;;;;;;;;;7.30;99.90;;;;;;5018920;28;20002;-84
2022/04/18 04:17:37;;;;;;;;;;;7.40;99.90;;;;;;5020402;28;19913;-83
2022/04/18 04:20:03;;;;;;;;;;;7.40;99.90;;;;;;5035596;28;20019;-82
2022/04/18 04:22:29;;;;;;;;;;;7.40;99.90;;;;;;5037617;28;20509;-83
2022/04/18 04:24:54;;;;;;;;;;;7.30;99.90;;;;;;5019174;28;19952;-83
2022/04/18 04:27:19;;;;;;;;;;;7.30;99.90;;;;;;5020130;28;19917;-84
2022/04/18 04:29:47;;;;;;;;;;;7.20;99.90;;;;;;5035720;28;19973;-85
2022/04/18 04:32:12;;;;;;;;;;;7.20;99.90;;;;;;5035998;28;19954;-86
2022/04/18 04:34:40;;;;;;;;;;;7.20;99.90;;;;;;5036456;28;19917;-84
2022/04/18 04:37:05;;;;;;;;;;;7.20;99.90;;;;;;5036195;28;19924;-85
2022/04/18 04:39:31;;;;;;;;;;;7.10;99.90;;;;;;5036613;28;19913;-85
2022/04/18 04:41:57;;;;;;;;;;;7.10;99.90;;;;;;5018410;28;19913;-83
2022/04/18 04:44:25;;;;;;;;;;;7.10;99.90;;;;;;5030923;28;20381;-85
2022/04/18 04:46:51;;;;;;;;;;;7.10;99.90;;;;;;5034972;28;19917;-85
2022/04/18 04:49:16;;;;;;;;;;;7.10;99.90;;;;;;5040534;28;19913;-85
2022/04/18 04:51:42;;;;;;;;;;;7.10;99.90;;;;;;5040784;28;20315;-85
2022/04/18 04:54:08;;;;;;;;;;;7.20;99.90;;;;;;5040522;28;19928;-84
2022/04/18 04:56:36;;;;;;;;;;;7.20;99.90;;;;;;5041026;28;20513;-84
2022/04/18 04:59:03;;;;;;;;;;;7.20;99.90;;;;;;5037614;28;19917;-84
2022/04/18 05:01:29;;;;;;;;;;;7.30;99.90;;;;;;5040223;28;19977;-85
2022/04/18 05:03:54;;;;;;;;;;;7.30;99.90;;;;;;5038408;28;21575;-84
2022/04/18 05:06:20;;;;;;;;;;;7.40;99.90;;;;;;5038287;28;19936;-84
2022/04/18 05:08:45;;;;;;;;;;;7.40;99.90;;;;;;5039869;28;19964;-85
2022/04/18 05:11:11;;;;;;;;;;;7.50;99.90;;;;;;5040860;28;19941;-84
2022/04/18 05:13:36;;;;;;;;;;;7.50;99.90;;;;;;5041482;28;19956;-83
2022/04/18 05:16:02;;;;;;;;;;;7.50;99.90;;;;;;5018325;28;20551;-85
2022/04/18 05:18:27;;;;;;;;;;;7.60;99.90;;;;;;5039131;28;19913;-84
2022/04/18 05:20:53;;;;;;;;;;;7.70;99.90;;;;;;5039981;28;20011;-84
2022/04/18 05:23:21;;;;;;;;;;;7.80;99.90;;;;;;5039497;28;19913;-85
2022/04/18 05:25:47;;;;;;;;;;;7.80;99.90;;;;;;5040484;28;19914;-85
2022/04/18 05:28:12;;;;;;;;;;;8.30;99.90;;;;;;5038857;28;19917;-86
2022/04/18 05:30:38;;;;;;;;;;;11.80;99.90;;;;;;5041421;28;19913;-85
2022/04/18 05:33:03;;;;;;;;;;;15.40;99.90;;;;;;5019567;28;20078;-85
2022/04/18 05:35:29;;;;;;;;;;;17.90;99.90;;;;;;5039179;28;19917;-83
2022/04/18 05:37:55;;;;;;;;;;;20.20;99.90;;;;;;5035522;28;19948;-82
2022/04/18 05:40:20;;;;;;;;;;;22.30;99.90;;;;;;5036630;28;19917;-83
2022/04/18 05:42:46;;;;;;;;;;;24.00;99.90;;;;;;5036024;28;20008;-83
2022/04/18 05:45:14;;;;;;;;;;;26.20;99.90;;;;;;5036465;28;19917;-85
2022/04/18 05:47:47;;;;;;;;;;;28.30;99.90;;;;;;5019579;28;19913;-84
2022/04/18 05:50:16;;;;;;;;;;;29.00;99.90;;;;;;5019005;28;19917;-84
2022/04/18 05:52:44;;;;;;;;;;;30.00;99.90;;;;;;5014067;28;19917;-82
2022/04/18 05:55:10;;;;;;;;;;;30.80;99.90;;;;;;5019458;28;20593;-84
2022/04/18 05:57:35;;;;;;;;;;;31.90;99.90;;;;;;5018790;28;19956;-84
2022/04/18 06:00:06;;;;;;;;;;;33.40;99.90;;;;;;5019210;28;20395;-81
2022/04/18 06:02:36;;;;;;;;;;;33.70;99.90;;;;;;5036655;28;19920;-82
2022/04/18 06:05:08;;;;;;;;;;;34.10;99.90;;;;;;5018324;28;19955;-82
2022/04/18 06:07:42;;;;;;;;;;;34.60;99.90;;;;;;5019342;28;19921;-82
2022/04/18 06:10:17;;;;;;;;;;;35.90;99.90;;;;;;5019137;28;19917;-83
2022/04/18 06:13:05;;;;;;;;;;;36.20;99.90;;;;;;5037200;28;19913;-84
2022/04/18 06:15:39;;;;;;;;;;;37.40;99.90;;;;;;5013310;28;20293;-83
2022/04/18 06:18:30;;;;;;;;;;;37.50;99.90;;;;;;5034706;28;19924;-84
2022/04/18 06:21:13;;;;;;;;;;;37.10;99.90;;;;;;5016872;28;20308;-83
2022/04/18 06:23:39;;;;;;;;;;;37.70;99.90;;;;;;5033459;28;19924;-82
2022/04/18 06:26:04;;;;;;;;;;;37.50;99.90;;;;;;5035575;28;19913;-84
2022/04/18 06:28:32;;;;;;;;;;;39.00;99.90;;;;;;5035702;28;20004;-82
2022/04/18 06:31:00;;;;;;;;;;;39.60;99.90;;;;;;5032993;28;20332;-84
2022/04/18 06:33:28;;;;;;;;;;;40.80;99.90;;;;;;5018039;28;19967;-84
2022/04/18 06:35:56;;;;;;;;;;;39.80;99.90;;;;;;5002529;28;19914;-84
2022/04/18 06:38:24;;;;;;;;;;;38.30;99.90;;;;;;5034380;28;19940;-84
2022/04/18 06:40:49;;;;;;;;;;;38.90;99.90;;;;;;5035695;28;20004;-85
2022/04/18 06:43:18;;;;;;;;;;;40.00;99.90;;;;;;5034594;28;19956;-85
2022/04/18 06:45:43;;;;;;;;;;;40.30;99.90;;;;;;5034368;28;19913;-84
2022/04/18 06:48:09;;;;;;;;;;;41.20;99.90;;;;;;5033508;28;19990;-83
2022/04/18 06:50:34;;;;;;;;;;;40.90;99.90;;;;;;5036521;28;19932;-83
2022/04/18 06:52:59;;;;;;;;;;;39.90;99.90;;;;;;5033555;28;19925;-83
2022/04/18 06:56:58;;;;;;;;;;;41.10;99.90;;;;;;5033200;28;20536;-83
2022/04/18 06:58:14;;;;;;;;;;;40.80;99.90;;;;;;5035634;28;19917;-84
2022/04/18 07:00:40;;;;;;;;;;;41.60;99.90;;;;;;5034572;28;19913;-82
2022/04/18 07:03:05;;;;;;;;;;;42.00;99.90;;;;;;5033375;28;19917;-84
2022/04/18 07:05:31;;;;;;;;;;;42.00;99.90;;;;;;5017705;28;19983;-85
2022/04/18 07:07:56;;;;;;;;;;;43.10;99.90;;;;;;5035676;28;19951;-85
2022/04/18 07:10:22;;;;;;;;;;;44.10;99.90;;;;;;5034645;28;19928;-83
2022/04/18 07:12:47;;;;;;;;;;;42.10;99.90;;;;;;5018814;28;19913;-83
2022/04/18 07:15:12;;;;;;;;;;;42.30;99.90;;;;;;5016639;28;19996;-83
2022/04/18 07:17:38;;;;;;;;;;;42.80;99.90;;;;;;5034351;28;19924;-84
2022/04/18 07:20:04;;;;;;;;;;;43.50;99.90;;;;;;5035849;28;19913;-83
2022/04/18 07:22:29;;;;;;;;;;;44.40;99.90;;;;;;5032878;28;19919;-83
2022/04/18 07:24:56;;;;;;;;;;;43.80;99.90;;;;;;5033393;28;19917;-83
2022/04/18 07:27:22;;;;;;;;;;;43.30;99.90;;;;;;5015981;28;19984;-84
2022/04/18 07:29:47;;;;;;;;;;;42.70;99.90;;;;;;5034667;28;19959;-85
2022/04/18 07:32:13;;;;;;;;;;;43.50;99.90;;;;;;5021106;28;19921;-85
2022/04/18 07:34:38;;;;;;;;;;;44.70;99.90;;;;;;5039164;28;19917;-82
2022/04/18 07:37:04;;;;;;;;;;;45.00;99.90;;;;;;5037489;28;19920;-84
2022/04/18 07:39:32;;;;;;;;;;;46.20;99.90;;;;;;5021263;28;19913;-84
2022/04/18 07:42:04;;;;;;;;;;;46.80;99.90;;;;;;5036983;28;19917;-86
2022/04/18 07:44:29;;;;;;;;;;;46.90;99.90;;;;;;5032961;28;19967;-85
2022/04/18 07:46:55;;;;;;;;;;;47.70;99.90;;;;;;5034489;28;19913;-86
2022/04/18 07:49:20;;;;;;;;;;;48.00;99.90;;;;;;5035706;28;19920;-84
2022/04/18 07:51:46;;;;;;;;;;;47.50;99.90;;;;;;5019174;28;19924;-84
2022/04/18 07:54:17;;;;;;;;;;;46.40;99.90;;;;;;5018501;28;19921;-84
2022/04/18 07:56:43;;;;;;;;;;;46.80;99.90;;;;;;5037426;28;19920;-87
2022/04/18 07:59:09;;;;;;;;;;;47.50;99.90;;;;;;5033261;28;20439;-85
2022/04/18 08:01:35;;;;;;;;;;;48.10;99.90;;;;;;5037186;28;19924;-85
2022/04/18 08:04:01;;;;;;;;;;;47.50;99.90;;;;;;5036910;28;19923;-85
2022/04/18 08:06:27;;;;;;;;;;;47.00;99.90;;;;;;5037479;28;19913;-84
2022/04/18 08:08:52;;;;;;;;;;;46.20;99.90;;;;;;5021588;28;19967;-82
2022/04/18 08:11:18;;;;;;;;;;;44.60;99.90;;;;;;5034944;28;20350;-82
2022/04/18 08:13:47;;;;;;;;;;;42.50;99.90;;;;;;5036645;28;19965;-84
2022/04/18 08:16:13;;;;;;;;;;;42.20;99.90;;;;;;5031330;28;20262;-85
2022/04/18 08:18:39;;;;;;;;;;;41.80;99.90;;;;;;5029006;28;19931;-87
2022/04/18 08:21:05;;;;;;;;;;;40.10;99.90;;;;;;5026459;28;20400;-85
2022/04/18 08:23:32;;;;;;;;;;;40.00;99.90;;;;;;5033803;28;20337;-86
2022/04/18 08:25:57;;;;;;;;;;;39.50;99.90;;;;;;5039051;28;19936;-86
2022/04/18 08:28:23;;;;;;;;;;;40.50;99.90;;;;;;5021963;28;19913;-86
2022/04/18 08:30:51;;;;;;;;;;;39.20;99.90;;;;;;5020849;28;19968;-84
2022/04/18 08:33:17;;;;;;;;;;;39.20;99.90;;;;;;5039330;28;19917;-86
2022/04/18 08:35:43;;;;;;;;;;;40.70;99.90;;;;;;5041223;28;19920;-87
2022/04/18 08:38:08;;;;;;;;;;;41.00;99.90;;;;;;5022825;28;19956;-84
2022/04/18 08:40:34;;;;;;;;;;;41.20;99.90;;;;;;5040532;28;19914;-85
2022/04/18 08:43:00;;;;;;;;;;;41.90;99.90;;;;;;5036469;28;19917;-88
2022/04/18 08:45:26;;;;;;;;;;;42.50;99.90;;;;;;5039438;28;19932;-85
2022/04/18 08:53:23;;;;;;;;;;;40.70;99.90;;;;;;5038993;28;20296;-85
2022/04/18 08:55:49;;;;;;;;;;;41.10;99.90;;;;;;5040063;28;19924;-86
2022/04/18 08:58:15;;;;;;;;;;;40.80;99.90;;;;;;5022496;28;19921;-84
2022/04/18 09:00:40;;;;;;;;;;;39.60;99.90;;;;;;5026482;23;19975;-86
2022/04/18 09:03:06;;;;;;;;;;;39.90;99.90;;;;;;5013482;28;19914;-83
2022/04/18 09:05:38;;;;;;;;;;;41.80;99.90;;;;;;5014764;28;19921;-83
2022/04/18 09:08:05;;;;;;;;;;;41.60;99.90;;;;;;5013590;28;19920;-83
2022/04/18 09:10:31;;;;;;;;;;;40.60;99.90;;;;;;5014869;28;19971;-84
2022/04/18 09:13:03;;;;;;;;;;;40.60;99.90;;;;;;5012253;28;20016;-83
2022/04/18 09:15:29;;;;;;;;;;;42.10;99.90;;;;;;5013158;28;20395;-83
2022/04/18 09:18:08;;;;;;;;;;;40.90;99.90;;;;;;5014352;28;19913;-86
2022/04/18 09:20:59;;;;;;;;;;;41.70;99.90;;;;;;5013061;28;20000;-86
2022/04/18 09:23:29;;;;;;;;;;;41.90;99.90;;;;;;4990555;28;19925;-84
2022/04/18 09:26:01;;;;;;;;;;;43.50;99.90;;;;;;5012655;28;19953;-84
2022/04/18 09:28:28;;;;;;;;;;;42.50;99.90;;;;;;4995824;28;19913;-85
2022/04/18 09:31:01;;;;;;;;;;;42.40;99.90;;;;;;5014991;28;20016;-86
2022/04/18 09:33:31;;;;;;;;;;;42.40;99.90;;;;;;4996866;28;19913;-85
2022/04/18 09:36:23;;;;;;;;;;;42.60;99.90;;;;;;5017118;28;19921;-85
2022/04/18 09:38:52;;;;;;;;;;;42.60;99.90;;;;;;4999607;28;20440;-84
2022/04/18 09:41:22;;;;;;;;;;;42.00;99.90;;;;;;5015920;28;20131;-85
2022/04/18 09:43:48;;;;;;;;;;;42.20;99.90;;;;;;5013943;28;19917;-86
2022/04/18 09:46:14;;;;;;;;;;;41.00;99.90;;;;;;5012728;28;19914;-85
2022/04/18 09:48:40;;;;;;;;;;;40.20;99.90;;;;;;5010292;28;19920;-85
2022/04/18 09:51:10;;;;;;;;;;;39.90;99.90;;;;;;5015090;28;19920;-85
2022/04/18 09:53:37;;;;;;;;;;;38.90;99.90;;;;;;5019784;28;19914;-85
2022/04/18 09:56:03;;;;;;;;;;;37.60;99.90;;;;;;5018504;28;19977;-84
2022/04/18 09:58:30;;;;;;;;;;;38.40;99.90;;;;;;5013768;28;19953;-85
2022/04/18 10:03:43;;;;;;;;;;;39.00;99.90;;;;;;4997623;28;19924;-85
2022/04/18 10:06:09;;;;;;;;;;;39.50;99.90;;;;;;5018265;28;20060;-85
2022/04/18 10:08:35;;;;;;;;;;;39.90;99.90;;;;;;4999851;28;19921;-85
2022/04/18 10:11:05;;;;;;;;;;;39.40;99.90;;;;;;5016129;28;20265;-84
2022/04/18 10:13:32;;;;;;;;;;;39.40;99.90;;;;;;5020890;28;20538;-85
2022/04/18 10:15:59;;;;;;;;;;;39.80;99.90;;;;;;5014745;28;19921;-85
2022/04/18 10:18:24;;;;;;;;;;;39.90;99.90;;;;;;5018819;28;19971;-86
2022/04/18 10:21:13;;;;;;;;;;;38.90;99.90;;;;;;5004315;28;19969;-84
2022/04/18 10:23:38;;;;;;;;;;;38.70;99.90;;;;;;5022606;28;20376;-85
2022/04/18 10:26:22;;;;;;;;;;;37.60;99.90;;;;;;5021589;28;19921;-87
2022/04/18 10:28:50;;;;;;;;;;;37.70;99.90;;;;;;5012672;28;19917;-84
2022/04/18 10:31:19;;;;;;;;;;;36.70;99.90;;;;;;5002241;28;19914;-85
2022/04/18 10:33:44;;;;;;;;;;;36.70;99.90;;;;;;5019250;28;19957;-85
2022/04/18 10:36:10;;;;;;;;;;;36.70;99.90;;;;;;4996477;28;19920;-85
2022/04/18 10:38:44;;;;;;;;;;;36.20;99.90;;;;;;5020148;28;20380;-85
2022/04/18 10:41:28;;;;;;;;;;;36.40;99.90;;;;;;4994421;28;20418;-85
2022/04/18 10:43:53;;;;;;;;;;;36.70;99.90;;;;;;5018131;28;19917;-85
2022/04/18 10:46:19;;;;;;;;;;;36.80;99.90;;;;;;5013234;28;19914;-83
2022/04/18 10:48:53;;;;;;;;;;;36.70;99.90;;;;;;5017525;28;19945;-85
2022/04/18 10:51:36;;;;;;;;;;;36.40;99.90;;;;;;5015065;28;19913;-84
2022/04/18 10:54:13;;;;;;;;;;;36.80;99.90;;;;;;5001476;28;19913;-85
2022/04/18 10:56:45;;;;;;;;;;;38.50;99.90;;;;;;5018654;28;19925;-84
2022/04/18 10:59:12;;;;;;;;;;;38.50;99.90;;;;;;5014552;28;20424;-84
2022/04/18 11:01:38;;;;;;;;;;;38.10;99.90;;;;;;5017229;28;19921;-83
2022/04/18 11:04:07;;;;;;;;;;;38.20;99.90;;;;;;5025297;28;19929;-86
2022/04/18 11:06:39;;;;;;;;;;;37.40;99.90;;;;;;5019590;28;20001;-86
2022/04/18 11:09:10;;;;;;;;;;;36.90;99.90;;;;;;5001667;28;19935;-86
2022/04/18 11:11:35;;;;;;;;;;;37.70;99.90;;;;;;5019030;28;19921;-86
2022/04/18 11:14:01;;;;;;;;;;;37.40;99.90;;;;;;5015238;28;20394;-84
2022/04/18 11:16:27;;;;;;;;;;;36.20;99.90;;;;;;5023206;28;19937;-85
2022/04/18 11:19:09;;;;;;;;;;;36.50;99.90;;;;;;5024344;28;20358;-84
2022/04/18 11:21:54;;;;;;;;;;;36.20;99.90;;;;;;5024034;28;19916;-85
2022/04/18 11:24:38;;;;;;;;;;;35.90;99.90;;;;;;5023111;28;20301;-84
2022/04/18 11:27:07;;;;;;;;;;;34.80;99.90;;;;;;5005442;28;19981;-85
2022/04/18 11:29:32;;;;;;;;;;;35.20;99.90;;;;;;5023335;28;19909;-85
2022/04/18 11:31:58;;;;;;;;;;;34.20;99.90;;;;;;5023397;28;20059;-85
2022/04/18 11:34:28;;;;;;;;;;;33.50;99.90;;;;;;5023001;28;19977;-84
2022/04/18 11:36:58;;;;;;;;;;;33.20;99.90;;;;;;5022353;28;19914;-85
2022/04/18 11:39:24;;;;;;;;;;;33.10;99.90;;;;;;5023141;28;19985;-85
2022/04/18 11:42:00;;;;;;;;;;;32.40;99.90;;;;;;5024322;28;19918;-85
2022/04/18 11:44:26;;;;;;;;;;;32.30;99.90;;;;;;5021924;28;19987;-85
2022/04/18 11:46:51;;;;;;;;;;;31.70;99.90;;;;;;5021988;28;20008;-85
2022/04/18 11:49:25;;;;;;;;;;;32.10;99.90;;;;;;5005920;28;19985;-84
2022/04/18 11:51:50;;;;;;;;;;;32.10;99.90;;;;;;5022639;28;19909;-84
2022/04/18 11:54:16;;;;;;;;;;;32.40;99.90;;;;;;5022316;28;19917;-84
2022/04/18 11:56:41;;;;;;;;;;;32.40;99.90;;;;;;5024344;28;19920;-84
2022/04/18 11:59:07;;;;;;;;;;;31.90;99.90;;;;;;5023591;28;19925;-84
2022/04/18 12:07:01;;;;;;;;;;;31.70;99.90;;;;;;5027186;28;19917;-84
2022/04/18 12:09:26;;;;;;;;;;;31.80;99.90;;;;;;5028872;28;20358;-84
2022/04/18 12:11:51;;;;;;;;;;;31.50;99.90;;;;;;5028822;28;19955;-83
2022/04/18 12:14:18;;;;;;;;;;;31.50;99.90;;;;;;5028517;28;19910;-84
2022/04/18 12:16:44;;;;;;;;;;;31.40;99.90;;;;;;5013392;28;19992;-84
2022/04/18 12:19:11;;;;;;;;;;;31.60;99.90;;;;;;5020886;28;20612;-85
2022/04/18 12:21:39;;;;;;;;;;;32.20;99.90;;;;;;5028178;28;19909;-84
2022/04/18 12:24:04;;;;;;;;;;;32.10;99.90;;;;;;5027558;28;20322;-85
2022/04/18 12:26:31;;;;;;;;;;;31.90;99.90;;;;;;5028719;28;19916;-84
2022/04/18 12:28:57;;;;;;;;;;;32.00;99.90;;;;;;5028663;28;19910;-84
2022/04/18 12:31:23;;;;;;;;;;;31.80;99.90;;;;;;5028494;28;19937;-84
2022/04/18 12:33:49;;;;;;;;;;;30.70;99.90;;;;;;5025686;28;19917;-84
2022/04/18 12:36:22;;;;;;;;;;;30.30;99.90;;;;;;5028786;28;19955;-84
2022/04/18 12:38:47;;;;;;;;;;;29.90;99.90;;;;;;5028382;28;19910;-84
2022/04/18 12:41:13;;;;;;;;;;;29.80;99.90;;;;;;5028631;28;19913;-84
2022/04/18 12:43:39;;;;;;;;;;;29.20;99.90;;;;;;5028558;28;19913;-84
2022/04/18 12:46:12;;;;;;;;;;;29.10;99.90;;;;;;5028824;28;20016;-84
2022/04/18 12:48:38;;;;;;;;;;;29.30;99.90;;;;;;5029467;28;19917;-84
2022/04/18 12:51:05;;;;;;;;;;;30.20;99.90;;;;;;5025122;28;19924;-85
2022/04/18 12:53:47;;;;;;;;;;;30.50;99.90;;;;;;5024089;28;20385;-84
2022/04/18 12:56:20;;;;;;;;;;;30.60;99.90;;;;;;5028290;28;19993;-84
2022/04/18 12:58:46;;;;;;;;;;;30.50;99.90;;;;;;5028131;28;20003;-84
2022/04/18 13:01:19;;;;;;;;;;;29.70;99.90;;;;;;5028807;28;20428;-83
2022/04/18 13:03:45;;;;;;;;;;;29.70;99.90;;;;;;5029405;28;19920;-84
2022/04/18 13:06:11;;;;;;;;;;;29.10;99.90;;;;;;5028859;28;19981;-84
2022/04/18 13:08:37;;;;;;;;;;;29.30;99.90;;;;;;5023956;28;19920;-84
2022/04/18 13:11:03;;;;;;;;;;;28.70;99.90;;;;;;5024763;28;19909;-84
2022/04/18 13:13:28;;;;;;;;;;;28.10;99.90;;;;;;5024957;28;20369;-84
2022/04/18 13:15:54;;;;;;;;;;;28.30;99.90;;;;;;5024962;28;19910;-84
2022/04/18 13:18:21;;;;;;;;;;;27.60;99.90;;;;;;5026022;28;19985;-84
2022/04/18 13:20:47;;;;;;;;;;;27.70;99.90;;;;;;5008433;28;19920;-84
2022/04/18 13:23:13;;;;;;;;;;;28.10;99.90;;;;;;5025588;28;19910;-84
2022/04/18 13:25:39;;;;;;;;;;;28.10;99.90;;;;;;5015768;28;19940;-83
2022/04/18 13:28:09;;;;;;;;;;;27.30;99.90;;;;;;5024147;28;19960;-83
2022/04/18 13:30:36;;;;;;;;;;;27.20;99.90;;;;;;5006557;28;19916;-84
2022/04/18 13:33:02;;;;;;;;;;;27.10;99.90;;;;;;5007743;28;20010;-84
2022/04/18 13:35:28;;;;;;;;;;;26.90;99.80;;;;;;5026135;28;19909;-84
2022/04/18 13:37:53;;;;;;;;;;;26.90;99.70;;;;;;5026037;28;19941;-84
2022/04/18 13:40:20;;;;;;;;;;;27.20;99.90;;;;;;5024781;28;20012;-84
2022/04/18 13:42:45;;;;;;;;;;;27.30;99.90;;;;;;5015762;28;19914;-83
2022/04/18 13:45:12;;;;;;;;;;;27.00;99.90;;;;;;5025302;28;19918;-84
2022/04/18 13:47:39;;;;;;;;;;;26.90;99.90;;;;;;5024450;28;19922;-84
2022/04/18 13:50:08;;;;;;;;;;;27.10;99.90;;;;;;5009352;28;19910;-84
2022/04/18 13:52:34;;;;;;;;;;;27.30;99.90;;;;;;5027219;28;19932;-84
2022/04/18 13:54:59;;;;;;;;;;;26.90;99.90;;;;;;5027730;28;19916;-83
2022/04/18 13:57:25;;;;;;;;;;;26.80;99.90;;;;;;5025565;28;19917;-84
2022/04/18 13:59:50;;;;;;;;;;;26.40;99.90;;;;;;5017737;28;19918;-84
2022/04/18 14:02:16;;;;;;;;;;;26.50;99.90;;;;;;5019032;28;19909;-84
2022/04/18 14:04:41;;;;;;;;;;;27.00;99.90;;;;;;5025310;28;19914;-84
2022/04/18 14:07:07;;;;;;;;;;;26.70;99.90;;;;;;5025366;28;19968;-84
2022/04/18 14:09:32;;;;;;;;;;;26.60;99.90;;;;;;5024557;28;20736;-84
2022/04/18 14:11:58;;;;;;;;;;;26.50;99.90;;;;;;5025090;28;19910;-84
2022/04/18 14:22:36;;;;;;;;;;;27.20;99.90;;;;;;5023614;28;20016;-84
2022/04/18 14:25:03;;;;;;;;;;;27.00;99.90;;;;;;5022831;28;19953;-84
2022/04/18 14:27:29;;;;;;;;;;;26.90;99.90;;;;;;5023548;28;19909;-83
2022/04/18 14:29:55;;;;;;;;;;;26.60;99.90;;;;;;5025439;28;19910;-84
2022/04/18 14:32:21;;;;;;;;;;;26.40;99.90;;;;;;5025421;28;19914;-84
2022/04/18 14:34:47;;;;;;;;;;;25.40;99.20;;;;;;5025691;28;19997;-84
2022/04/18 14:37:12;;;;;;;;;;;25.30;98.50;;;;;;5008922;28;19931;-83
2022/04/18 14:39:38;;;;;;;;;;;25.30;99.30;;;;;;5025540;28;19980;-84
2022/04/18 14:42:03;;;;;;;;;;;24.40;97.50;;;;;;5025988;28;19956;-84
2022/04/18 14:44:29;;;;;;;;;;;24.40;97.50;;;;;;5008238;28;19913;-84
2022/04/18 14:46:54;;;;;;;;;;;24.20;97.30;;;;;;5026500;28;19921;-84
2022/04/18 14:49:20;;;;;;;;;;;24.10;97.00;;;;;;5025592;28;19920;-83
2022/04/18 14:51:45;;;;;;;;;;;24.30;97.60;;;;;;5023150;28;19914;-83
2022/04/18 14:54:11;;;;;;;;;;;24.00;97.70;;;;;;5007830;28;19910;-83